Fairbury, NE (68352)

8:01 PM CDT on September 18, 2014 (GMT -0500)
Crystal Springs Campground | Change Station
CLOSE
Current Station
Personal Weather Station
Location: Fairbury, NE
Elevation: 1424 ft
Nearby Weather Stations

Elev 1424 ft 40.13 °N, 97.21 °W | Updated 3 seconds ago

Clear
Clear
69.2 °F
Feels Like 69.2 °F
N
4.0
Wind Variable Wind from ESE
Gusts 11.0 mph

Today
High -- | Low -- °F
--% Chance of Precip.
Yesterday
High -- | Low -- °F
Precip. -- in
7:12 AM 7:32 PM
Waning Crescent, 23% visible
Pressure 29.91 in
Visibility 10.0 miles
Clouds Clear
Dew Point 64 °F
Humidity 83%
Rainfall 0.00 in
Snow Depth Not available.
UV 0 out of 12
Pollen 4.70 out of 12
Air Quality Not available.
Flu Activity Not available.
METAR KHJH 190055Z AUTO 12004KT 10SM CLR 22/17 A2991 RMK AO2 T02210170

More Conditions Fewer Conditions

Pressure 29.91 in
Visibility 10.0 miles
Clouds Clear
Dew Point 64 °F
Humidity 83%
Rainfall 0.00 in
Snow Depth Not available.
UV 0 out of 12
Pollen 4.70 out of 12
Air Quality Not available.
Flu Activity Not available.
METAR KHJH 190055Z AUTO 12004KT 10SM CLR 22/17 A2991 RMK AO2 T02210170

More Conditions Fewer Conditions

10-Day Weather Forecast

Almanac

Astronomy

Sep. 18, 2014 Rise Set
Actual Time 7:12 AM CDT 7:32 PM CDT
Civil Twilight 6:45 AM CDT 7:59 PM CDT
Nautical Twilight 6:13 AM CDT 8:31 PM CDT
Astronomical Twilight 5:40 AM CDT 9:03 PM CDT
Moon 2:05 AM CDT (9/18) 4:24 PM CDT (9/18)
Length of Visible Light 13h 14m
Length of Day
12h 19m
Tomorrow will be 2m 37s shorter.
Waning Crescent, 23% of the Moon is Illuminated
Today
Waning Crescent
Sep 24
New
Oct 1
First Quarter
Oct 8
Full
Oct 15
Last Quarter

Today's Extremes

State Highs State Lows

Community

WunderPhotos

Upload Photos

1,754,509 photos uploaded!

Nearby

Snow Depth

Station Depth Elevation
No new snow has been reported.

Earthquake Activity

City Distance Mag. Time & Date
No recent earthquake activity has been reported nearby.
Minimum magnitude displayed is 2.5.

Coastal Water Temperatures

Place Temperature
No Stations Reporting

Nearby Weather Stations